Time;durP1;ratioP1;P1;durP2;ratioP2;P2;SDS_P1;SDS_P2;PMS_P1;PMS_P2;Temp;Humidity;BMP_temperature;BMP_pressure;BME280_temperature;BME280_humidity;BME280_pressure;Samples;Min_cycle;Max_cycle;Signal;HPM_P1;HPM_P2
2023/01/12 00:01:25;;;;;;;5.00;1.93;;;6.00;99.90;;;;;;5052619;28;20910;-70
2023/01/12 00:03:52;;;;;;;4.53;1.50;;;6.00;99.90;;;;;;5052334;28;20444;-70
2023/01/12 00:06:20;;;;;;;3.70;1.83;;;6.00;99.90;;;;;;5052465;28;20456;-70
2023/01/12 00:08:47;;;;;;;6.90;1.50;;;6.00;99.90;;;;;;5051806;28;20813;-70
2023/01/12 00:11:13;;;;;;;4.80;2.23;;;6.00;99.90;;;;;;5052386;28;20423;-70
2023/01/12 00:13:38;;;;;;;9.17;2.10;;;6.00;99.90;;;;;;5052307;28;20463;-69
2023/01/12 00:18:48;;;;;;;7.00;1.90;;;6.00;99.90;;;;;;5051536;28;20709;-70
2023/01/12 00:21:16;;;;;;;4.13;1.77;;;6.00;99.90;;;;;;5052260;28;20420;-71
2023/01/12 00:23:42;;;;;;;4.77;1.73;;;6.00;99.90;;;;;;5052246;28;20189;-69
2023/01/12 00:26:08;;;;;;;8.80;1.97;;;6.00;99.90;;;;;;5052201;28;20459;-70
2023/01/12 00:28:35;;;;;;;13.53;2.43;;;5.90;99.90;;;;;;5051435;28;20431;-70
2023/01/12 00:31:02;;;;;;;6.70;2.67;;;6.00;99.90;;;;;;5052129;28;20502;-70
2023/01/12 00:33:28;;;;;;;5.83;2.20;;;6.00;99.90;;;;;;5051654;28;20462;-70
2023/01/12 00:35:53;;;;;;;5.30;1.40;;;6.00;99.90;;;;;;5058990;28;20444;-70
2023/01/12 00:38:19;;;;;;;2.93;1.37;;;6.10;99.90;;;;;;5054423;28;20623;-70
2023/01/12 00:40:44;;;;;;;7.97;2.03;;;6.10;99.90;;;;;;5065494;28;20180;-70
2023/01/12 00:45:54;;;;;;;2.90;1.70;;;6.20;99.90;;;;;;5052038;28;20244;-71
2023/01/12 00:48:20;;;;;;;6.63;2.10;;;6.30;99.90;;;;;;5051243;28;20447;-70
2023/01/12 00:50:45;;;;;;;8.00;2.40;;;6.40;99.90;;;;;;5052278;28;20542;-70
2023/01/12 00:53:12;;;;;;;3.37;1.47;;;6.40;99.90;;;;;;5051742;28;20190;-70
2023/01/12 00:55:37;;;;;;;7.57;2.00;;;6.50;99.90;;;;;;5051761;28;20181;-70
2023/01/12 00:58:03;;;;;;;4.83;2.53;;;6.50;99.90;;;;;;5052388;28;20412;-71
2023/01/12 01:00:29;;;;;;;3.30;1.73;;;6.60;99.90;;;;;;5055414;28;20173;-70
2023/01/12 01:02:55;;;;;;;7.90;2.13;;;6.60;99.90;;;;;;5055920;28;20440;-70
2023/01/12 01:05:20;;;;;;;6.10;1.63;;;6.60;99.90;;;;;;5055841;28;20527;-71
2023/01/12 01:07:46;;;;;;;4.47;1.73;;;6.60;99.90;;;;;;5055924;28;20161;-70
2023/01/12 01:10:12;;;;;;;2.30;1.53;;;6.60;99.90;;;;;;5055063;28;20181;-70
2023/01/12 01:12:39;;;;;;;3.67;1.97;;;6.60;99.90;;;;;;5055453;28;20210;-70
2023/01/12 01:15:05;;;;;;;7.93;2.90;;;6.60;99.90;;;;;;5055767;28;20412;-70
2023/01/12 01:17:30;;;;;;;8.33;2.10;;;6.70;99.90;;;;;;5055546;28;20422;-70
2023/01/12 01:19:56;;;;;;;6.47;1.97;;;6.80;99.90;;;;;;5055029;28;20420;-70
2023/01/12 01:22:21;;;;;;;4.63;1.63;;;6.80;99.90;;;;;;5055616;28;20193;-70
2023/01/12 01:24:47;;;;;;;7.10;1.80;;;6.80;99.90;;;;;;5055485;28;20200;-70
2023/01/12 01:27:13;;;;;;;11.20;1.80;;;6.80;99.90;;;;;;5055243;28;20205;-70
2023/01/12 01:29:39;;;;;;;2.40;1.60;;;6.80;99.90;;;;;;5054824;28;20169;-70
2023/01/12 01:32:05;;;;;;;3.23;1.47;;;6.70;99.90;;;;;;5055014;28;20477;-70
2023/01/12 01:34:31;;;;;;;4.53;2.63;;;6.70;99.90;;;;;;5055479;28;20264;-70
2023/01/12 01:36:58;;;;;;;4.07;2.13;;;6.70;99.90;;;;;;5055445;28;20458;-71
2023/01/12 01:39:23;;;;;;;2.20;1.70;;;6.70;99.90;;;;;;5053126;28;20185;-70
2023/01/12 01:41:49;;;;;;;2.77;1.10;;;6.70;99.90;;;;;;5058951;28;20442;-70
2023/01/12 01:44:29;;;;;;;6.00;1.97;;;6.70;99.90;;;;;;5071338;28;20188;-70
2023/01/12 01:47:05;;;;;;;4.70;1.83;;;6.70;99.90;;;;;;5070369;28;20277;-69
2023/01/12 01:49:47;;;;;;;3.37;1.83;;;6.70;99.90;;;;;;5054582;28;20792;-70
2023/01/12 01:52:21;;;;;;;8.27;2.00;;;6.70;99.90;;;;;;5055027;28;20436;-70
2023/01/12 01:55:25;;;;;;;5.30;1.50;;;6.80;99.90;;;;;;5055047;28;20415;-69
2023/01/12 01:57:59;;;;;;;7.33;1.57;;;6.90;99.90;;;;;;5013034;28;20425;-70
2023/01/12 02:00:25;;;;;;;5.17;2.10;;;6.90;99.90;;;;;;5043203;28;20455;-69
2023/01/12 02:02:52;;;;;;;6.17;2.40;;;7.00;99.90;;;;;;5054835;28;20440;-71
2023/01/12 02:05:23;;;;;;;7.23;2.30;;;7.00;99.90;;;;;;5054851;28;20553;-69
2023/01/12 02:07:50;;;;;;;5.10;2.00;;;7.00;99.90;;;;;;5054841;28;20516;-70
2023/01/12 02:10:17;;;;;;;2.77;1.63;;;7.00;99.90;;;;;;5053377;28;20781;-70
2023/01/12 02:18:35;;;;;;;1.73;1.60;;;7.00;99.90;;;;;;5054024;28;20446;-70
2023/01/12 02:21:19;;;;;;;5.03;1.43;;;7.00;99.90;;;;;;5054635;28;20544;-70
2023/01/12 02:23:55;;;;;;;4.83;1.83;;;7.00;99.90;;;;;;5054575;28;20974;-70
2023/01/12 02:27:05;;;;;;;12.00;2.33;;;7.00;99.90;;;;;;5054378;28;20490;-71
2023/01/12 02:29:59;;;;;;;7.80;1.73;;;7.00;99.90;;;;;;5053566;28;20503;-71
2023/01/12 02:32:40;;;;;;;3.87;1.40;;;7.00;99.90;;;;;;5031835;28;20443;-69
2023/01/12 02:35:20;;;;;;;2.30;1.53;;;7.00;99.90;;;;;;5054079;28;20470;-70
2023/01/12 02:38:11;;;;;;;4.60;1.60;;;7.00;99.90;;;;;;5054333;28;20449;-70
2023/01/12 02:41:04;;;;;;;3.63;1.80;;;7.00;99.90;;;;;;5054018;28;20494;-70
2023/01/12 02:43:32;;;;;;;5.10;1.97;;;6.90;99.90;;;;;;5058253;28;20549;-70
2023/01/12 02:46:18;;;;;;;2.57;1.83;;;6.90;99.90;;;;;;5073374;28;20451;-70
2023/01/12 02:48:53;;;;;;;5.27;2.23;;;6.90;99.90;;;;;;5060305;28;20947;-70
2023/01/12 02:51:31;;;;;;;7.30;1.83;;;6.80;99.90;;;;;;5053881;28;20423;-69
2023/01/12 02:54:13;;;;;;;5.63;2.13;;;6.70;99.90;;;;;;5053935;28;20435;-70
2023/01/12 02:57:02;;;;;;;6.77;1.73;;;6.70;99.90;;;;;;5053762;28;20423;-70
2023/01/12 02:59:34;;;;;;;6.40;1.57;;;6.70;99.90;;;;;;5052974;28;20450;-70
2023/01/12 03:02:16;;;;;;;8.80;1.50;;;6.70;99.90;;;;;;5053775;28;20428;-70
2023/01/12 03:04:42;;;;;;;4.10;2.00;;;6.60;99.90;;;;;;5053831;28;20423;-71
2023/01/12 03:07:24;;;;;;;3.03;1.67;;;6.60;99.90;;;;;;5053646;28;20451;-70
2023/01/12 03:09:54;;;;;;;3.90;1.57;;;6.60;99.90;;;;;;5049328;28;20212;-70
2023/01/12 03:12:26;;;;;;;3.93;1.57;;;6.60;99.90;;;;;;5056793;28;20463;-69
2023/01/12 03:14:54;;;;;;;3.67;2.03;;;6.60;99.90;;;;;;5061512;28;20426;-70
2023/01/12 03:17:37;;;;;;;4.70;2.10;;;6.60;99.90;;;;;;5061578;28;20411;-70
2023/01/12 03:20:09;;;;;;;3.70;1.37;;;6.60;99.90;;;;;;5063457;28;20538;-69
2023/01/12 03:22:36;;;;;;;7.40;1.73;;;6.60;99.90;;;;;;5052320;28;20462;-70
2023/01/12 03:25:09;;;;;;;9.10;1.70;;;6.60;99.90;;;;;;5053228;28;20457;-70
2023/01/12 03:27:38;;;;;;;8.60;1.97;;;6.60;99.90;;;;;;5053303;28;20565;-70
2023/01/12 03:30:15;;;;;;;4.63;1.70;;;6.60;99.90;;;;;;5052510;28;20416;-69
2023/01/12 03:32:41;;;;;;;3.90;1.60;;;6.70;99.90;;;;;;5053157;28;20490;-70
2023/01/12 03:35:08;;;;;;;3.30;1.63;;;6.70;99.90;;;;;;5053164;28;20420;-70
2023/01/12 03:37:38;;;;;;;5.17;1.83;;;6.80;99.90;;;;;;5053139;28;20423;-69
2023/01/12 03:40:11;;;;;;;2.47;1.23;;;6.80;99.90;;;;;;5052371;28;20447;-70
2023/01/12 03:42:51;;;;;;;2.80;1.47;;;6.80;99.90;;;;;;5053026;28;20440;-70
2023/01/12 03:45:57;;;;;;;7.83;1.80;;;6.70;99.90;;;;;;5053232;28;20837;-70
2023/01/12 03:48:41;;;;;;;6.90;1.70;;;6.70;99.90;;;;;;5048642;28;20515;-69
2023/01/12 03:51:16;;;;;;;8.07;2.17;;;6.70;99.90;;;;;;5052844;28;20510;-69
2023/01/12 03:53:43;;;;;;;8.23;2.23;;;6.70;99.90;;;;;;5052855;28;20428;-69
2023/01/12 03:56:11;;;;;;;3.60;1.90;;;6.70;99.90;;;;;;5052745;28;20434;-70
2023/01/12 03:58:36;;;;;;;4.70;2.13;;;6.70;99.90;;;;;;5051831;28;20438;-70
2023/01/12 04:01:03;;;;;;;9.43;1.50;;;6.70;99.90;;;;;;5052669;28;20413;-70
2023/01/12 04:03:29;;;;;;;4.00;1.90;;;6.70;99.90;;;;;;5052528;28;20228;-69
2023/01/12 04:05:54;;;;;;;5.70;1.73;;;6.70;99.90;;;;;;5052569;28;20487;-70
2023/01/12 04:08:20;;;;;;;4.50;2.10;;;6.80;99.90;;;;;;5051854;28;20184;-70
2023/01/12 04:10:46;;;;;;;4.57;1.67;;;6.80;99.90;;;;;;5052496;28;20580;-71
2023/01/12 04:13:11;;;;;;;4.70;1.30;;;6.90;99.90;;;;;;5052275;28;20571;-69
2023/01/12 04:15:41;;;;;;;9.43;1.70;;;6.90;99.90;;;;;;5051068;28;20692;-70
2023/01/12 04:18:10;;;;;;;5.27;2.37;;;7.00;99.90;;;;;;5064489;28;20184;-70
2023/01/12 04:20:37;;;;;;;8.43;1.50;;;7.00;99.90;;;;;;5070350;28;20474;-69
2023/01/12 04:23:02;;;;;;;9.23;3.00;;;7.00;99.90;;;;;;5067477;28;20427;-69
2023/01/12 04:25:28;;;;;;;5.93;1.97;;;7.10;99.90;;;;;;5052135;28;20920;-70
2023/01/12 04:28:03;;;;;;;10.27;2.47;;;7.10;99.90;;;;;;5052112;28;20173;-69
2023/01/12 04:30:33;;;;;;;2.53;1.60;;;7.10;99.90;;;;;;5051520;28;20166;-69
2023/01/12 04:32:59;;;;;;;5.80;1.73;;;7.10;99.90;;;;;;5051670;28;20839;-70
2023/01/12 04:35:26;;;;;;;4.90;2.10;;;7.10;99.90;;;;;;5052023;28;20558;-69
2023/01/12 04:37:52;;;;;;;4.87;1.97;;;7.10;99.90;;;;;;5052111;28;20416;-69
2023/01/12 04:40:19;;;;;;;12.43;2.40;;;7.10;99.90;;;;;;5051305;28;20423;-69
2023/01/12 04:43:06;;;;;;;4.43;1.53;;;7.10;99.90;;;;;;5051889;28;20432;-70
2023/01/12 04:45:34;;;;;;;5.60;2.50;;;7.10;99.90;;;;;;5052016;28;20491;-70
2023/01/12 04:48:06;;;;;;;9.10;2.40;;;7.00;99.90;;;;;;5051976;28;20791;-69
2023/01/12 04:50:31;;;;;;;4.23;1.63;;;7.00;99.90;;;;;;5051220;28;20431;-69
2023/01/12 04:53:00;;;;;;;3.57;1.63;;;7.10;99.90;;;;;;5051909;28;20758;-69
2023/01/12 04:55:25;;;;;;;5.73;1.57;;;7.10;99.90;;;;;;5051691;28;20179;-69
2023/01/12 04:57:51;;;;;;;6.47;2.27;;;7.10;99.90;;;;;;5051897;28;20522;-69
2023/01/12 05:00:17;;;;;;;14.63;4.40;;;7.10;99.90;;;;;;5051242;28;20184;-70
2023/01/12 05:02:42;;;;;;;3.93;2.17;;;7.10;99.90;;;;;;5051775;28;20272;-69
2023/01/12 05:05:08;;;;;;;8.53;2.07;;;7.10;99.90;;;;;;5051765;28;20515;-69
2023/01/12 05:07:34;;;;;;;10.60;2.00;;;7.10;99.90;;;;;;5051742;28;20241;-69
2023/01/12 05:12:44;;;;;;;7.47;2.50;;;7.10;99.90;;;;;;5051998;28;20209;-69
2023/01/12 05:15:10;;;;;;;8.10;1.97;;;7.10;99.90;;;;;;5051698;28;20416;-71
2023/01/12 05:17:35;;;;;;;5.13;1.87;;;7.20;99.90;;;;;;5051181;28;20615;-71
2023/01/12 05:20:01;;;;;;;4.03;1.70;;;7.20;99.90;;;;;;5059191;28;20514;-70
2023/01/12 05:22:26;;;;;;;6.00;1.87;;;7.20;99.90;;;;;;5057148;28;20236;-71
2023/01/12 05:24:52;;;;;;;7.90;2.20;;;7.20;99.90;;;;;;5066307;28;20251;-70
2023/01/12 05:27:18;;;;;;;8.80;4.43;;;7.20;99.90;;;;;;5060802;28;20685;-70
2023/01/12 05:29:43;;;;;;;9.00;3.10;;;7.20;99.90;;;;;;5069465;28;20218;-71
2023/01/12 05:32:09;;;;;;;6.13;2.30;;;7.30;99.90;;;;;;5066200;28;20562;-69
2023/01/12 05:34:34;;;;;;;5.97;2.20;;;7.30;99.90;;;;;;5051360;28;20166;-70
2023/01/12 05:37:00;;;;;;;6.73;2.60;;;7.30;99.90;;;;;;5051448;28;20182;-71
2023/01/12 05:39:25;;;;;;;8.37;2.87;;;7.40;99.90;;;;;;5050640;28;20174;-72
2023/01/12 05:44:35;;;;;;;6.13;2.30;;;7.40;99.90;;;;;;5051504;28;20230;-71
2023/01/12 05:47:00;;;;;;;6.10;1.70;;;7.40;99.90;;;;;;5054962;28;20937;-70
2023/01/12 05:49:26;;;;;;;13.13;2.43;;;7.40;99.90;;;;;;5054322;28;20176;-69
2023/01/12 05:51:52;;;;;;;7.00;2.20;;;7.40;99.90;;;;;;5055274;28;20252;-70
2023/01/12 05:54:17;;;;;;;4.87;1.63;;;7.40;99.90;;;;;;5055126;28;20157;-70
2023/01/12 05:56:43;;;;;;;6.30;2.50;;;7.40;99.90;;;;;;5055070;28;20304;-70
2023/01/12 05:59:10;;;;;;;5.57;1.93;;;7.40;99.90;;;;;;5054043;28;20181;-68
2023/01/12 06:01:36;;;;;;;7.77;2.60;;;7.40;99.90;;;;;;5054966;28;20235;-69
2023/01/12 06:04:02;;;;;;;6.90;1.97;;;7.40;99.90;;;;;;5054739;28;20439;-69
2023/01/12 06:06:32;;;;;;;6.47;2.33;;;7.40;99.90;;;;;;5054844;28;20463;-68
2023/01/12 06:08:59;;;;;;;10.37;2.00;;;7.30;99.90;;;;;;5054050;28;20189;-68
2023/01/12 06:14:09;;;;;;;5.60;2.13;;;7.20;99.90;;;;;;5054691;28;20944;-68
2023/01/12 06:16:39;;;;;;;6.53;1.90;;;7.20;99.90;;;;;;5054449;28;20511;-68
2023/01/12 06:19:06;;;;;;;8.30;2.10;;;7.20;99.90;;;;;;5053808;28;20404;-69
2023/01/12 06:21:33;;;;;;;4.40;1.47;;;7.20;99.90;;;;;;5054478;28;20421;-71
2023/01/12 06:23:58;;;;;;;5.83;1.90;;;7.20;99.90;;;;;;5054493;28;20493;-69
2023/01/12 06:26:24;;;;;;;4.47;2.20;;;7.20;99.90;;;;;;5053819;28;20459;-68
2023/01/12 06:28:49;;;;;;;9.40;2.50;;;7.20;99.90;;;;;;5059700;28;20595;-70
2023/01/12 06:31:15;;;;;;;6.40;2.90;;;7.20;99.90;;;;;;5057351;28;20181;-71
2023/01/12 06:33:41;;;;;;;4.13;2.10;;;7.20;99.90;;;;;;5061919;28;20197;-70
2023/01/12 06:36:07;;;;;;;10.70;2.20;;;7.20;99.90;;;;;;5065946;28;20185;-71
2023/01/12 06:38:33;;;;;;;8.13;2.50;;;7.20;99.90;;;;;;5073525;28;20664;-68
2023/01/12 06:41:07;;;;;;;13.00;2.10;;;7.20;99.90;;;;;;5055574;28;20458;-68
2023/01/12 06:43:33;;;;;;;7.07;3.10;;;7.20;99.90;;;;;;5054077;28;21053;-70
2023/01/12 06:45:59;;;;;;;7.10;2.60;;;7.10;99.90;;;;;;5053945;28;20567;-67
2023/01/12 06:48:25;;;;;;;6.90;2.33;;;7.10;99.90;;;;;;5053205;28;20428;-67
2023/01/12 06:50:55;;;;;;;5.07;2.17;;;7.10;99.90;;;;;;5054178;28;20593;-70
2023/01/12 06:53:21;;;;;;;5.20;2.40;;;7.10;99.90;;;;;;5034005;28;20487;-67
2023/01/12 06:55:48;;;;;;;8.10;1.90;;;7.10;99.90;;;;;;5033834;28;20464;-71
2023/01/12 06:58:13;;;;;;;4.67;2.10;;;7.20;99.90;;;;;;5033118;28;20182;-71
2023/01/12 07:00:39;;;;;;;6.37;2.10;;;7.20;99.90;;;;;;5033971;28;20769;-70
2023/01/12 07:03:04;;;;;;;6.93;2.97;;;7.20;99.90;;;;;;5033714;28;20202;-71
2023/01/12 07:05:30;;;;;;;7.40;1.93;;;7.20;99.90;;;;;;5036478;28;20189;-70
2023/01/12 07:07:58;;;;;;;8.73;2.17;;;7.20;99.90;;;;;;5053566;28;20220;-70
2023/01/12 07:10:23;;;;;;;5.80;2.10;;;7.30;99.90;;;;;;5052900;28;20181;-71
2023/01/12 07:12:49;;;;;;;4.00;1.83;;;7.30;99.90;;;;;;5053346;28;20464;-70
2023/01/12 07:15:15;;;;;;;6.47;2.27;;;7.40;99.90;;;;;;5053498;28;20206;-73
2023/01/12 07:17:41;;;;;;;5.00;2.33;;;7.40;99.90;;;;;;5053518;28;20426;-70
2023/01/12 07:20:08;;;;;;;3.80;2.10;;;7.40;99.90;;;;;;5052732;28;20181;-70
2023/01/12 07:22:33;;;;;;;3.00;1.40;;;7.50;99.90;;;;;;5053286;28;20205;-70
2023/01/12 07:24:59;;;;;;;8.37;1.83;;;7.50;99.90;;;;;;5053259;28;20478;-70
2023/01/12 07:27:24;;;;;;;6.70;1.83;;;7.60;99.90;;;;;;5053117;28;20621;-69
2023/01/12 07:29:50;;;;;;;7.53;1.83;;;7.60;99.90;;;;;;5052676;28;20177;-70
2023/01/12 07:32:15;;;;;;;4.63;1.70;;;7.60;99.90;;;;;;5053172;28;20197;-70
2023/01/12 07:34:41;;;;;;;7.40;1.50;;;7.70;99.90;;;;;;5053103;28;20181;-69
2023/01/12 07:37:06;;;;;;;4.80;2.17;;;7.70;99.90;;;;;;5054340;28;20188;-73
2023/01/12 07:39:32;;;;;;;6.30;1.80;;;7.70;99.90;;;;;;5056541;28;20211;-72
2023/01/12 07:44:41;;;;;;;4.80;1.60;;;7.70;99.90;;;;;;5060540;28;20188;-70
2023/01/12 07:47:07;;;;;;;4.87;2.93;;;7.70;99.90;;;;;;5052891;28;20460;-70
2023/01/12 07:49:32;;;;;;;9.13;2.37;;;7.70;99.90;;;;;;5052232;28;20173;-73
2023/01/12 07:51:58;;;;;;;3.00;1.70;;;7.70;99.90;;;;;;5052811;28;20170;-70
2023/01/12 07:54:23;;;;;;;3.33;1.43;;;7.70;99.90;;;;;;5052662;28;20712;-71
2023/01/12 07:56:49;;;;;;;7.13;1.77;;;7.70;99.90;;;;;;5045862;28;20236;-71
2023/01/12 07:59:14;;;;;;;3.07;1.30;;;7.60;99.90;;;;;;5051974;28;20220;-70
2023/01/12 08:01:40;;;;;;;6.73;1.83;;;7.60;99.90;;;;;;5052630;28;20170;-71
2023/01/12 08:04:06;;;;;;;6.00;1.70;;;7.60;99.90;;;;;;5052638;28;20201;-70
2023/01/12 08:06:33;;;;;;;5.50;1.57;;;7.60;99.90;;;;;;5052585;28;20189;-70
2023/01/12 08:08:58;;;;;;;6.07;1.70;;;7.60;99.90;;;;;;5051219;28;20449;-71
2023/01/12 08:11:24;;;;;;;4.67;1.57;;;7.60;99.90;;;;;;5052519;28;20422;-70
2023/01/12 08:13:54;;;;;;;2.83;1.70;;;7.60;99.90;;;;;;5052181;28;20316;-69
2023/01/12 08:16:23;;;;;;;2.30;1.37;;;7.60;99.90;;;;;;5052458;28;20173;-70
2023/01/12 08:19:01;;;;;;;3.20;2.57;;;7.60;99.90;;;;;;5051635;28;20506;-70
2023/01/12 08:21:38;;;;;;;4.53;1.97;;;7.60;99.90;;;;;;5052289;28;20426;-73
2023/01/12 08:24:08;;;;;;;4.33;1.50;;;7.70;99.90;;;;;;5052142;28;20957;-71
2023/01/12 08:26:38;;;;;;;10.13;2.63;;;7.70;99.90;;;;;;5052201;28;20456;-70
2023/01/12 08:29:11;;;;;;;5.73;3.97;;;7.70;99.90;;;;;;5051503;28;20412;-71
2023/01/12 08:31:37;;;;;;;3.33;1.70;;;7.70;99.90;;;;;;5052040;28;20477;-71
2023/01/12 08:34:04;;;;;;;3.67;1.60;;;7.70;99.90;;;;;;5051886;28;20475;-70
2023/01/12 08:36:31;;;;;;;5.17;1.50;;;7.70;99.90;;;;;;5052088;28;20469;-70
2023/01/12 08:38:57;;;;;;;7.03;1.87;;;7.80;99.90;;;;;;5051376;28;20411;-72
2023/01/12 08:41:31;;;;;;;2.40;1.67;;;7.80;99.90;;;;;;5051143;28;20450;-70
2023/01/12 08:44:10;;;;;;;4.43;1.50;;;7.80;99.90;;;;;;5059444;28;20204;-72
2023/01/12 08:46:46;;;;;;;7.13;1.90;;;7.80;99.90;;;;;;5060138;28;20490;-69
2023/01/12 08:49:12;;;;;;;9.90;1.73;;;7.80;99.90;;;;;;5050969;28;20447;-71
2023/01/12 08:51:38;;;;;;;3.37;1.57;;;7.90;99.90;;;;;;5055545;28;20432;-72
2023/01/12 08:54:05;;;;;;;8.63;2.13;;;7.80;99.90;;;;;;5063474;28;20780;-72
2023/01/12 08:56:31;;;;;;;4.63;1.47;;;7.90;99.90;;;;;;5053886;28;20427;-70
2023/01/12 08:58:56;;;;;;;2.60;1.83;;;7.90;99.90;;;;;;5053112;28;20423;-72
2023/01/12 09:01:22;;;;;;;6.10;1.43;;;7.90;99.90;;;;;;5051790;28;20185;-70
2023/01/12 09:03:48;;;;;;;2.57;1.43;;;7.90;99.90;;;;;;5051703;28;20198;-70
2023/01/12 09:06:25;;;;;;;5.80;1.40;;;8.00;99.90;;;;;;5051543;28;20288;-70
2023/01/12 09:08:56;;;;;;;3.73;1.40;;;8.00;99.90;;;;;;5051103;28;20955;-70
2023/01/12 09:11:22;;;;;;;4.13;1.40;;;8.00;99.90;;;;;;5051694;28;20412;-72
2023/01/12 09:13:48;;;;;;;4.07;1.30;;;8.00;99.90;;;;;;5051481;28;20968;-71
2023/01/12 09:16:16;;;;;;;4.67;2.27;;;8.00;99.90;;;;;;5051648;28;20511;-72
2023/01/12 09:18:42;;;;;;;9.03;2.43;;;8.10;99.90;;;;;;5050931;28;20203;-69
2023/01/12 09:21:16;;;;;;;4.90;2.03;;;8.10;99.90;;;;;;5053982;28;20412;-69
2023/01/12 09:23:43;;;;;;;4.63;1.50;;;8.10;99.90;;;;;;5035706;28;20451;-70
2023/01/12 09:26:11;;;;;;;4.40;1.80;;;8.10;99.90;;;;;;5035578;28;20453;-70
2023/01/12 09:28:37;;;;;;;7.47;1.50;;;8.10;99.90;;;;;;5034923;28;20769;-70
2023/01/12 09:31:04;;;;;;;4.33;1.43;;;8.20;99.90;;;;;;5035632;28;20413;-70
2023/01/12 09:33:30;;;;;;;3.80;1.23;;;8.20;99.90;;;;;;5035485;28;20860;-72
2023/01/12 09:36:06;;;;;;;6.37;2.43;;;8.20;99.90;;;;;;5035434;28;20863;-72
2023/01/12 09:38:35;;;;;;;4.20;2.07;;;8.20;99.90;;;;;;5037638;28;20442;-71
2023/01/12 09:41:07;;;;;;;8.43;2.00;;;8.20;99.90;;;;;;5055367;28;20822;-70
2023/01/12 09:49:23;;;;;;;8.03;2.60;;;8.40;99.90;;;;;;5054531;28;20438;-70
2023/01/12 09:52:11;;;;;;;4.87;1.47;;;8.40;99.90;;;;;;5055113;28;20416;-69
2023/01/12 09:54:36;;;;;;;4.50;1.47;;;8.40;99.90;;;;;;5055148;28;20499;-70
2023/01/12 09:57:46;;;;;;;8.00;1.80;;;8.50;99.90;;;;;;5054966;28;20867;-70
2023/01/12 10:00:14;;;;;;;4.57;1.40;;;8.50;99.90;;;;;;5054321;28;20170;-70
2023/01/12 10:02:48;;;;;;;9.33;2.70;;;8.60;99.90;;;;;;5054839;28;20435;-71
2023/01/12 10:05:25;;;;;;;2.37;1.50;;;8.60;99.90;;;;;;5054937;28;20411;-70
2023/01/12 10:07:54;;;;;;;2.33;1.50;;;8.70;99.90;;;;;;5054697;28;21039;-70
2023/01/12 10:10:20;;;;;;;6.80;1.97;;;8.70;99.90;;;;;;5054139;28;20408;-69
2023/01/12 10:12:53;;;;;;;6.20;2.00;;;8.80;99.90;;;;;;5054408;28;20486;-70
2023/01/12 10:15:30;;;;;;;8.27;1.93;;;8.90;99.90;;;;;;5054841;28;20196;-69
2023/01/12 10:18:01;;;;;;;4.30;1.57;;;8.90;99.90;;;;;;5054603;28;20407;-71
2023/01/12 10:20:36;;;;;;;4.10;1.67;;;8.90;99.90;;;;;;5053829;28;20416;-70
2023/01/12 10:23:15;;;;;;;4.37;1.20;;;9.00;99.90;;;;;;5054585;28;20459;-72
2023/01/12 10:25:44;;;;;;;4.37;1.73;;;9.00;99.90;;;;;;5054481;28;20776;-70
2023/01/12 10:28:28;;;;;;;10.10;2.10;;;9.00;99.90;;;;;;5054066;28;20784;-73
2023/01/12 10:30:55;;;;;;;8.33;1.60;;;9.00;99.90;;;;;;5053699;28;20416;-70
2023/01/12 10:33:29;;;;;;;3.60;1.30;;;9.00;99.90;;;;;;5054214;28;20439;-71
2023/01/12 10:36:02;;;;;;;2.63;1.40;;;9.10;99.90;;;;;;5054316;28;20979;-70
2023/01/12 10:38:28;;;;;;;7.43;1.80;;;9.10;99.90;;;;;;5053696;28;20920;-70
2023/01/12 10:41:16;;;;;;;5.60;2.33;;;9.20;99.90;;;;;;5054260;28;20412;-71
2023/01/12 10:43:43;;;;;;;2.77;1.30;;;9.20;99.90;;;;;;5054229;28;20186;-69
2023/01/12 10:46:22;;;;;;;7.00;1.50;;;9.20;99.90;;;;;;5053966;28;20491;-68
2023/01/12 10:48:50;;;;;;;4.83;1.40;;;9.30;99.90;;;;;;5033433;28;20923;-70
2023/01/12 10:51:32;;;;;;;3.23;0.97;;;9.30;99.90;;;;;;5034101;28;20420;-70
2023/01/12 10:54:25;;;;;;;5.00;2.20;;;9.30;99.90;;;;;;5053357;28;20459;-70
2023/01/12 10:57:21;;;;;;;5.50;1.53;;;9.30;99.90;;;;;;5062334;28;20534;-72
2023/01/12 10:59:56;;;;;;;2.57;1.10;;;9.30;99.90;;;;;;5055523;28;20527;-72
2023/01/12 11:02:25;;;;;;;2.40;1.57;;;9.30;99.90;;;;;;5056557;28;20968;-68
2023/01/12 11:04:52;;;;;;;2.70;0.70;;;9.30;99.90;;;;;;5059878;28;20468;-70
2023/01/12 11:07:27;;;;;;;7.13;1.43;;;9.30;99.90;;;;;;5063546;28;20550;-69
2023/01/12 11:10:14;;;;;;;2.20;1.10;;;9.30;99.90;;;;;;5072992;28;20414;-68
2023/01/12 11:12:40;;;;;;;2.60;1.90;;;9.30;99.90;;;;;;5039513;28;20811;-69
2023/01/12 11:15:08;;;;;;;2.37;0.77;;;9.30;99.90;;;;;;5053611;28;20418;-72
2023/01/12 11:17:58;;;;;;;2.93;1.37;;;9.30;99.90;;;;;;5053536;28;20178;-72
2023/01/12 11:20:50;;;;;;;3.23;1.00;;;9.30;99.90;;;;;;5052669;28;20418;-69
2023/01/12 11:23:26;;;;;;;0.60;0.60;;;9.30;99.90;;;;;;5053332;28;20450;-70
2023/01/12 11:25:53;;;;;;;3.17;0.93;;;9.30;99.90;;;;;;5053321;28;20439;-70
2023/01/12 11:28:28;;;;;;;4.20;1.10;;;9.30;99.90;;;;;;5052682;28;20416;-72
2023/01/12 11:30:53;;;;;;;1.20;1.03;;;9.30;99.90;;;;;;5053107;28;21027;-69
2023/01/12 11:33:23;;;;;;;5.10;1.13;;;9.30;99.90;;;;;;5052981;28;20525;-69
2023/01/12 11:36:01;;;;;;;0.87;0.60;;;9.30;99.90;;;;;;5053193;28;20183;-69
2023/01/12 11:38:31;;;;;;;1.77;1.10;;;9.30;99.90;;;;;;5052357;28;20416;-70
2023/01/12 11:40:57;;;;;;;3.80;1.07;;;9.30;99.90;;;;;;5052984;28;20423;-70
2023/01/12 11:46:34;;;;;;;3.57;1.90;;;9.30;99.90;;;;;;5053027;28;20560;-70
2023/01/12 11:49:10;;;;;;;1.70;1.57;;;9.40;99.90;;;;;;5052149;28;20861;-70
2023/01/12 11:51:36;;;;;;;2.27;1.50;;;9.40;99.90;;;;;;5052938;28;20434;-69
2023/01/12 11:54:03;;;;;;;1.13;0.70;;;9.30;99.90;;;;;;5034748;28;21022;-69
2023/01/12 11:56:50;;;;;;;5.00;2.07;;;9.30;99.90;;;;;;5052648;28;20426;-69
2023/01/12 11:59:45;;;;;;;1.93;0.90;;;9.30;99.90;;;;;;5051949;28;20491;-73
2023/01/12 12:02:22;;;;;;;0.90;0.60;;;9.20;99.90;;;;;;5051109;28;20827;-72
2023/01/12 12:05:13;;;;;;;2.63;0.97;;;9.30;99.90;;;;;;5052679;28;20411;-72
2023/01/12 12:07:45;;;;;;;1.80;1.03;;;9.30;99.90;;;;;;5056864;28;20510;-69
2023/01/12 12:10:49;;;;;;;3.63;1.00;;;9.30;99.90;;;;;;5062613;28;20912;-71
2023/01/12 12:13:54;;;;;;;1.23;0.90;;;9.30;99.90;;;;;;5018152;28;21079;-71
2023/01/12 12:16:46;;;;;;;2.50;2.13;;;9.40;99.90;;;;;;5021515;28;20432;-72
2023/01/12 12:19:42;;;;;;;2.10;1.00;;;9.30;99.90;;;;;;5050887;28;20420;-70
2023/01/12 12:22:33;;;;;;;1.87;1.40;;;9.40;99.90;;;;;;5052320;28;20987;-70
2023/01/12 12:25:04;;;;;;;2.00;1.30;;;9.40;99.90;;;;;;5052246;28;20412;-69
2023/01/12 12:27:37;;;;;;;2.30;0.90;;;9.40;99.90;;;;;;5047358;28;20457;-71
2023/01/12 12:30:31;;;;;;;4.83;0.70;;;9.40;99.90;;;;;;5047034;28;20416;-70
2023/01/12 12:33:26;;;;;;;3.53;1.37;;;9.40;99.90;;;;;;5052098;28;20459;-70
2023/01/12 12:36:16;;;;;;;1.37;0.97;;;9.40;99.90;;;;;;5052120;28;20413;-70
2023/01/12 12:39:13;;;;;;;5.67;1.00;;;9.40;99.90;;;;;;5051360;28;20416;-70
2023/01/12 12:45:17;;;;;;;1.90;1.07;;;9.40;99.90;;;;;;5052119;28;20423;-70
2023/01/12 12:47:48;;;;;;;1.80;0.80;;;9.50;99.90;;;;;;5051965;28;20851;-70
2023/01/12 12:50:40;;;;;;;0.97;0.87;;;9.50;99.90;;;;;;5051128;28;20449;-69
2023/01/12 12:53:13;;;;;;;2.33;1.10;;;9.60;99.90;;;;;;5051915;28;20432;-70
2023/01/12 12:55:39;;;;;;;2.70;1.23;;;9.70;99.90;;;;;;5051745;28;20491;-71
2023/01/12 12:58:26;;;;;;;3.37;1.00;;;9.80;99.90;;;;;;5051709;28;20949;-71
2023/01/12 13:00:53;;;;;;;2.67;0.90;;;9.80;99.90;;;;;;5051746;28;20408;-71
2023/01/12 13:03:37;;;;;;;1.63;1.10;;;9.80;99.90;;;;;;5051718;28;20976;-71
2023/01/12 13:06:13;;;;;;;3.83;1.97;;;9.80;99.90;;;;;;5031857;28;20946;-71
2023/01/12 13:08:39;;;;;;;2.80;0.90;;;9.80;99.90;;;;;;5031200;28;20420;-70
2023/01/12 13:11:06;;;;;;;2.33;1.40;;;9.80;99.90;;;;;;5050174;28;20868;-71
2023/01/12 13:13:35;;;;;;;2.50;1.00;;;9.70;99.90;;;;;;5060505;28;20235;-70
2023/01/12 13:16:19;;;;;;;2.10;0.80;;;9.80;99.90;;;;;;5063329;28;20439;-69
2023/01/12 13:18:47;;;;;;;1.90;0.90;;;9.80;99.90;;;;;;5054465;28;20438;-71
2023/01/12 13:21:27;;;;;;;1.43;1.20;;;9.70;99.90;;;;;;5050618;28;20864;-69
2023/01/12 13:24:13;;;;;;;1.67;1.23;;;9.70;99.90;;;;;;5067865;28;20423;-71
2023/01/12 13:26:46;;;;;;;1.43;0.90;;;9.70;99.90;;;;;;5069671;28;20455;-72
2023/01/12 13:29:27;;;;;;;2.10;0.97;;;9.70;99.90;;;;;;5050940;28;20857;-70
2023/01/12 13:32:21;;;;;;;1.00;0.70;;;9.60;99.90;;;;;;5051467;28;20412;-73
2023/01/12 13:34:46;;;;;;;1.13;0.63;;;9.60;99.90;;;;;;5051401;28;20461;-72
2023/01/12 13:37:35;;;;;;;2.27;0.67;;;9.60;99.90;;;;;;5051453;28;20424;-69
2023/01/12 13:40:12;;;;;;;4.73;1.23;;;9.60;99.90;;;;;;5050711;28;20709;-71
2023/01/12 13:45:22;;;;;;;1.10;0.80;;;9.60;99.90;;;;;;5051775;28;20466;-72
2023/01/12 13:47:51;;;;;;;1.27;0.70;;;9.60;99.90;;;;;;5051358;28;20455;-71
2023/01/12 13:50:20;;;;;;;1.87;1.00;;;9.60;99.90;;;;;;5050672;28;20416;-71
2023/01/12 13:52:56;;;;;;;2.00;0.70;;;9.60;99.90;;;;;;5051245;28;20432;-72
2023/01/12 13:55:26;;;;;;;3.43;0.93;;;9.50;99.90;;;;;;5033394;28;20427;-72
2023/01/12 13:58:14;;;;;;;3.77;1.00;;;9.60;99.90;;;;;;5051257;28;20428;-71